createdAt,value
2022-11-08T00:02:18.307Z,100586.03
2022-11-08T00:04:45.980Z,100581.06
2022-11-08T00:07:31.341Z,100588.88
2022-11-08T00:10:16.636Z,100613.94
2022-11-08T00:13:01.951Z,100619.25
2022-11-08T00:15:29.726Z,100604.34
2022-11-08T00:17:58.834Z,100608.63
2022-11-08T00:20:26.387Z,100606.66
2022-11-08T00:22:54.034Z,100613.28
2022-11-08T00:25:21.745Z,100608.00
2022-11-08T00:27:49.364Z,100599.03
2022-11-08T00:30:17.181Z,100593.88
2022-11-08T00:32:44.838Z,100597.03
2022-11-08T00:35:14.062Z,100603.38
2022-11-08T00:37:41.707Z,100591.09
2022-11-08T00:40:10.516Z,100597.53
2022-11-08T00:42:38.033Z,100596.88
2022-11-08T00:45:06.689Z,100604.00
2022-11-08T00:47:34.410Z,100596.72
2022-11-08T00:50:02.298Z,100601.53
2022-11-08T00:52:31.127Z,100595.69
2022-11-08T00:54:58.634Z,100596.69
2022-11-08T00:57:41.144Z,100594.38
2022-11-08T01:00:15.052Z,100592.25
2022-11-08T01:02:42.555Z,100591.41
2022-11-08T01:05:10.413Z,100583.66
2022-11-08T01:07:39.303Z,100590.91
2022-11-08T01:10:07.928Z,100589.09
2022-11-08T01:12:35.789Z,100581.97
2022-11-08T01:15:03.355Z,100592.06
2022-11-08T01:17:30.852Z,100595.47
2022-11-08T01:19:58.412Z,100587.88
2022-11-08T01:22:25.951Z,100592.28
2022-11-08T01:24:54.820Z,100585.06
2022-11-08T01:27:22.396Z,100580.72
2022-11-08T01:29:49.956Z,100576.53
2022-11-08T01:32:17.425Z,100580.31
2022-11-08T01:34:44.915Z,100569.06
2022-11-08T01:37:12.374Z,100565.94
2022-11-08T01:39:39.879Z,100567.84
2022-11-08T01:42:08.705Z,100564.22
2022-11-08T01:45:00.492Z,100559.25
2022-11-08T01:47:27.991Z,100558.75
2022-11-08T01:49:57.367Z,100555.25
2022-11-08T01:52:29.037Z,100557.78
2022-11-08T01:55:13.266Z,100549.63
2022-11-08T01:57:46.511Z,100551.28
2022-11-08T02:00:14.881Z,100544.97
2022-11-08T02:02:43.818Z,100546.13
2022-11-08T02:05:25.585Z,100544.00
2022-11-08T02:07:56.266Z,100541.38
2022-11-08T02:10:26.489Z,100536.22
2022-11-08T02:12:56.098Z,100533.41
2022-11-08T02:15:25.058Z,100540.34
2022-11-08T02:17:52.728Z,100538.50
2022-11-08T02:20:20.353Z,100534.34
2022-11-08T02:22:52.264Z,100539.78
2022-11-08T02:25:21.180Z,100536.44
2022-11-08T02:27:48.638Z,100542.59
2022-11-08T02:30:16.159Z,100537.56
2022-11-08T02:32:43.940Z,100545.44
2022-11-08T02:35:14.130Z,100536.56
2022-11-08T02:37:42.027Z,100529.13
2022-11-08T02:40:10.577Z,100516.81
2022-11-08T02:42:39.793Z,100518.63
2022-11-08T02:45:08.783Z,100519.94
2022-11-08T02:47:36.313Z,100514.66
2022-11-08T02:50:04.429Z,100510.38
2022-11-08T02:52:31.956Z,100517.78
2022-11-08T02:54:59.499Z,100514.09
2022-11-08T02:57:27.032Z,100510.47
2022-11-08T02:59:55.867Z,100505.06
2022-11-08T03:02:23.497Z,100505.88
2022-11-08T03:04:51.084Z,100508.09
2022-11-08T03:07:23.676Z,100502.94
2022-11-08T03:09:52.210Z,100499.31
2022-11-08T03:12:20.124Z,100507.09
2022-11-08T03:14:47.645Z,100503.44
2022-11-08T03:17:16.518Z,100500.16
2022-11-08T03:19:44.016Z,100498.84
2022-11-08T03:22:11.515Z,100489.97
2022-11-08T03:24:39.012Z,100499.66
2022-11-08T03:27:06.519Z,100496.38
2022-11-08T03:29:34.011Z,100489.53
2022-11-08T03:32:01.491Z,100481.63
2022-11-08T03:34:30.296Z,100480.38
2022-11-08T03:36:57.879Z,100483.28
2022-11-08T03:39:25.475Z,100474.22
2022-11-08T03:41:53.013Z,100481.16
2022-11-08T03:44:20.546Z,100481.22
2022-11-08T03:46:48.057Z,100474.94
2022-11-08T03:49:15.588Z,100478.00
2022-11-08T03:51:44.395Z,100477.16
2022-11-08T03:54:12.018Z,100483.53
2022-11-08T03:56:39.580Z,100471.81
2022-11-08T03:59:07.143Z,100481.72
2022-11-08T04:01:34.716Z,100478.44
2022-11-08T04:04:02.296Z,100473.00
2022-11-08T04:06:29.809Z,100467.66
2022-11-08T04:08:58.621Z,100465.47
2022-11-08T04:11:43.980Z,100455.06
2022-11-08T04:14:29.220Z,100454.69
2022-11-08T04:16:57.113Z,100455.13
2022-11-08T04:19:42.366Z,100452.22
2022-11-08T04:22:11.405Z,100450.69
2022-11-08T04:24:40.275Z,100434.97
2022-11-08T04:27:07.797Z,100432.88
2022-11-08T04:29:35.260Z,100412.03
2022-11-08T04:32:02.753Z,100410.81
2022-11-08T04:34:30.235Z,100427.13
2022-11-08T04:36:57.763Z,100414.31
2022-11-08T04:39:25.241Z,100417.09
2022-11-08T04:41:59.158Z,100422.09
2022-11-08T04:44:29.309Z,100423.88
2022-11-08T04:46:56.866Z,100425.31
2022-11-08T04:49:24.351Z,100427.34
2022-11-08T04:51:51.864Z,100419.00
2022-11-08T04:54:19.361Z,100416.88
2022-11-08T04:56:46.826Z,100419.81
2022-11-08T04:59:15.660Z,100416.38
2022-11-08T05:01:43.299Z,100421.63
2022-11-08T05:04:10.929Z,100420.34
2022-11-08T05:06:38.472Z,100416.34
2022-11-08T05:09:05.963Z,100410.59
2022-11-08T05:11:33.449Z,100403.97
2022-11-08T05:14:00.926Z,100397.22
2022-11-08T05:16:30.984Z,100403.56
2022-11-08T05:18:58.769Z,100397.03
2022-11-08T05:21:44.206Z,100388.63
2022-11-08T05:24:14.420Z,100396.50
2022-11-08T05:26:43.636Z,100386.78
2022-11-08T05:29:11.713Z,100392.59
2022-11-08T05:31:40.885Z,100391.72
2022-11-08T05:34:08.400Z,100389.56
2022-11-08T05:36:35.928Z,100378.84
2022-11-08T05:39:03.449Z,100388.78
2022-11-08T05:41:31.007Z,100386.59
2022-11-08T05:43:58.586Z,100389.44
2022-11-08T05:46:26.306Z,100389.06
2022-11-08T05:48:55.232Z,100387.28
2022-11-08T05:51:22.730Z,100371.94
2022-11-08T05:53:50.350Z,100374.06
2022-11-08T05:56:18.769Z,100374.47
2022-11-08T05:58:46.595Z,100378.44
2022-11-08T06:01:16.249Z,100383.63
2022-11-08T06:03:44.047Z,100380.63
2022-11-08T06:06:14.817Z,100381.00
2022-11-08T06:08:46.268Z,100379.56
2022-11-08T06:11:21.274Z,100370.28
2022-11-08T06:13:48.775Z,100371.72
2022-11-08T06:16:17.434Z,100382.44
2022-11-08T06:18:45.240Z,100381.97
2022-11-08T06:21:15.787Z,100386.22
2022-11-08T06:23:43.549Z,100391.63
2022-11-08T06:26:11.069Z,100386.50
2022-11-08T06:28:38.859Z,100384.91
2022-11-08T06:31:06.701Z,100378.16
2022-11-08T06:33:34.544Z,100371.25
2022-11-08T06:36:02.060Z,100367.25
2022-11-08T06:38:31.020Z,100378.72
2022-11-08T06:41:00.071Z,100371.91
2022-11-08T06:43:28.089Z,100371.06
2022-11-08T06:45:55.822Z,100371.34
2022-11-08T06:48:23.330Z,100385.06
2022-11-08T06:50:50.836Z,100400.00
2022-11-08T06:53:18.623Z,100391.25
2022-11-08T06:55:47.657Z,100389.81
2022-11-08T06:58:15.181Z,100397.06
2022-11-08T07:00:42.646Z,100388.16
2022-11-08T07:03:10.913Z,100384.84
2022-11-08T07:05:38.534Z,100396.06
2022-11-08T07:08:07.167Z,100406.91
2022-11-08T07:10:34.923Z,100394.41
2022-11-08T07:13:05.965Z,100401.72
2022-11-08T07:15:34.572Z,100402.25
2022-11-08T07:18:03.203Z,100400.88
2022-11-08T07:20:31.363Z,100407.44
2022-11-08T07:23:00.018Z,100393.50
2022-11-08T07:25:29.021Z,100402.31
2022-11-08T07:27:57.545Z,100402.97
2022-11-08T07:30:26.903Z,100400.19
2022-11-08T07:32:54.837Z,100410.97
2022-11-08T07:35:22.954Z,100413.56
2022-11-08T07:37:50.570Z,100417.56
2022-11-08T07:40:18.340Z,100419.59
2022-11-08T07:45:34.972Z,100412.13
2022-11-08T07:48:10.668Z,100422.38
2022-11-08T07:50:39.922Z,100431.69
2022-11-08T07:53:07.673Z,100421.63
2022-11-08T07:55:37.272Z,100425.81
2022-11-08T07:58:05.159Z,100431.63
2022-11-08T08:00:38.485Z,100435.97
2022-11-08T08:03:07.848Z,100431.06
2022-11-08T08:05:37.203Z,100424.63
2022-11-08T08:08:05.164Z,100421.66
2022-11-08T08:10:33.190Z,100436.84
2022-11-08T08:13:00.955Z,100432.25
2022-11-08T08:15:28.515Z,100437.59
2022-11-08T08:17:57.382Z,100425.69
2022-11-08T08:20:24.895Z,100432.31
2022-11-08T08:22:52.745Z,100437.38
2022-11-08T08:25:20.660Z,100423.06
2022-11-08T08:27:48.610Z,100430.84
2022-11-08T08:30:17.804Z,100422.44
2022-11-08T08:32:47.915Z,100424.75
2022-11-08T08:35:20.367Z,100424.47
2022-11-08T08:37:50.028Z,100412.59
2022-11-08T08:40:18.898Z,100418.22
2022-11-08T08:42:58.776Z,100419.22
2022-11-08T08:45:56.237Z,100413.16
2022-11-08T08:48:33.335Z,100411.97
2022-11-08T08:51:03.614Z,100420.59
2022-11-08T08:53:34.105Z,100418.44
2022-11-08T08:56:06.708Z,100420.94
2022-11-08T08:58:34.636Z,100421.44
2022-11-08T09:03:50.746Z,100418.66
2022-11-08T09:06:19.982Z,100427.56
2022-11-08T09:08:49.081Z,100427.41
2022-11-08T09:11:17.350Z,100426.56
2022-11-08T09:13:45.126Z,100426.56
2022-11-08T09:16:14.207Z,100434.19
2022-11-08T09:18:42.375Z,100434.19
2022-11-08T09:21:10.581Z,100413.97
2022-11-08T09:23:41.530Z,100425.41
2022-11-08T09:26:09.181Z,100429.84
2022-11-08T09:28:37.509Z,100430.50
2022-11-08T09:31:06.395Z,100430.50
2022-11-08T09:33:34.643Z,100412.75
2022-11-08T09:36:02.450Z,100418.16
2022-11-08T09:38:30.547Z,100427.75
2022-11-08T09:41:12.621Z,100417.75
2022-11-08T09:43:48.216Z,100409.72
2022-11-08T09:46:21.557Z,100402.00
2022-11-08T09:48:49.159Z,100413.25
2022-11-08T09:51:18.408Z,100416.75
2022-11-08T09:53:50.204Z,100414.53
2022-11-08T09:56:24.909Z,100418.38
2022-11-08T09:58:54.307Z,100414.47
2022-11-08T10:01:26.862Z,100418.34
2022-11-08T10:03:56.622Z,100414.44
2022-11-08T10:06:58.196Z,100404.66
2022-11-08T10:09:40.503Z,100400.53
2022-11-08T10:12:19.136Z,100399.25
2022-11-08T10:14:58.240Z,100394.19
2022-11-08T10:17:42.085Z,100383.00
2022-11-08T10:20:17.547Z,100387.03
2022-11-08T10:22:51.620Z,100381.53
2022-11-08T10:25:22.114Z,100378.13
2022-11-08T10:28:28.367Z,100383.31
2022-11-08T10:30:56.918Z,100364.53
2022-11-08T10:33:30.448Z,100376.28
2022-11-08T10:36:02.420Z,100383.16
2022-11-08T10:38:36.235Z,100381.38
2022-11-08T10:41:09.505Z,100381.53
2022-11-08T10:43:43.409Z,100376.69
2022-11-08T10:46:36.262Z,100383.66
2022-11-08T10:49:12.437Z,100377.66
2022-11-08T10:51:40.154Z,100391.06
2022-11-08T10:54:08.421Z,100378.22
2022-11-08T10:56:55.432Z,100372.56
2022-11-08T10:59:32.871Z,100367.09
2022-11-08T11:02:01.025Z,100363.09
2022-11-08T11:04:30.816Z,100374.09
2022-11-08T11:07:02.515Z,100371.31
2022-11-08T11:09:30.298Z,100365.31
2022-11-08T11:11:58.804Z,100352.03
2022-11-08T11:14:26.844Z,100352.69
2022-11-08T11:16:58.915Z,100340.44
2022-11-08T11:19:27.015Z,100342.50
2022-11-08T11:21:58.005Z,100337.19
2022-11-08T11:24:25.783Z,100340.25
2022-11-08T11:27:02.818Z,100344.59
2022-11-08T11:29:31.649Z,100348.94
2022-11-08T11:32:25.194Z,100345.06
2022-11-08T11:34:58.273Z,100339.31
2022-11-08T11:37:33.909Z,100340.53
2022-11-08T11:40:05.926Z,100338.91
2022-11-08T11:42:45.833Z,100337.69
2022-11-08T11:45:19.362Z,100320.00
2022-11-08T11:47:53.807Z,100326.38
2022-11-08T11:50:31.268Z,100323.53
2022-11-08T11:53:00.393Z,100315.31
2022-11-08T11:55:35.791Z,100318.19
2022-11-08T11:58:12.782Z,100312.59
2022-11-08T12:00:46.122Z,100313.41
2022-11-08T12:03:31.947Z,100308.47
2022-11-08T12:06:29.763Z,100303.53
2022-11-08T12:09:12.113Z,100307.19
2022-11-08T12:11:47.793Z,100298.94
2022-11-08T12:14:35.461Z,100299.16
2022-11-08T12:17:17.670Z,100300.16
2022-11-08T12:19:51.676Z,100302.81
2022-11-08T12:22:29.877Z,100288.56
2022-11-08T12:25:02.546Z,100289.81
2022-11-08T12:27:38.452Z,100293.69
2022-11-08T12:30:10.319Z,100297.19
2022-11-08T12:32:54.990Z,100289.34
2022-11-08T12:35:32.528Z,100279.47
2022-11-08T12:38:17.720Z,100276.34
2022-11-08T12:40:50.703Z,100275.94
2022-11-08T12:43:33.152Z,100275.84
2022-11-08T12:46:08.679Z,100277.25
2022-11-08T12:48:48.537Z,100268.50
2022-11-08T12:51:23.759Z,100268.72
2022-11-08T12:54:02.869Z,100265.50
2022-11-08T12:56:35.935Z,100268.75
2022-11-08T12:59:03.663Z,100256.56
2022-11-08T13:01:31.403Z,100252.50
2022-11-08T13:04:36.054Z,100250.56
2022-11-08T13:07:10.660Z,100239.84
2022-11-08T13:09:43.329Z,100243.94
2022-11-08T13:12:27.007Z,100244.75
2022-11-08T13:14:54.630Z,100237.47
2022-11-08T13:17:26.200Z,100230.41
2022-11-08T13:20:04.649Z,100225.88
2022-11-08T13:22:47.754Z,100228.13
2022-11-08T13:25:38.786Z,100224.19
2022-11-08T13:28:43.724Z,100223.53
2022-11-08T13:31:20.954Z,100231.63
2022-11-08T13:34:04.744Z,100232.22
2022-11-08T13:36:40.769Z,100224.78
2022-11-08T13:39:26.874Z,100225.78
2022-11-08T13:42:09.953Z,100227.19
2022-11-08T13:45:16.797Z,100234.25
2022-11-08T13:47:56.117Z,100225.94
2022-11-08T13:50:54.631Z,100236.03
2022-11-08T13:53:51.549Z,100238.28
2022-11-08T13:56:46.505Z,100238.28
2022-11-08T13:59:50.970Z,100242.44
2022-11-08T14:02:32.698Z,100239.16
2022-11-08T14:05:19.948Z,100236.56
2022-11-08T14:07:49.141Z,100224.78
2022-11-08T14:10:21.130Z,100237.47
2022-11-08T14:12:54.109Z,100235.44
2022-11-08T14:15:25.228Z,100233.81
2022-11-08T14:17:54.890Z,100232.00
2022-11-08T14:20:32.883Z,100229.75
2022-11-08T14:23:05.121Z,100219.50
2022-11-08T14:25:35.539Z,100227.13
2022-11-08T14:28:05.567Z,100229.16
2022-11-08T14:30:33.502Z,100231.63
2022-11-08T14:33:08.955Z,100231.06
2022-11-08T14:35:36.824Z,100237.22
2022-11-08T14:38:04.750Z,100224.09
2022-11-08T14:40:32.415Z,100208.06
2022-11-08T14:42:59.993Z,100208.50
2022-11-08T14:45:30.159Z,100212.69
2022-11-08T14:48:03.315Z,100207.31
2022-11-08T14:50:33.137Z,100205.72
2022-11-08T14:53:21.944Z,100206.00
2022-11-08T14:55:56.547Z,100210.72
2022-11-08T14:58:28.624Z,100205.81
2022-11-08T15:00:58.911Z,100203.97
2022-11-08T15:03:28.929Z,100206.72
2022-11-08T15:05:57.606Z,100201.78
2022-11-08T15:09:05.634Z,100205.69
2022-11-08T15:11:35.012Z,100197.50
2022-11-08T15:14:04.554Z,100197.09
2022-11-08T15:16:41.038Z,100200.22
2022-11-08T15:19:37.265Z,100194.06
2022-11-08T15:22:23.922Z,100197.38
2022-11-08T15:25:01.289Z,100200.25
2022-11-08T15:27:29.101Z,100210.16
2022-11-08T15:30:01.412Z,100205.66
2022-11-08T15:32:36.671Z,100197.47
2022-11-08T15:35:05.212Z,100190.88
2022-11-08T15:37:35.620Z,100190.06
2022-11-08T15:40:04.779Z,100184.09
2022-11-08T15:42:47.575Z,100179.41
2022-11-08T15:45:25.176Z,100187.41
2022-11-08T15:47:55.018Z,100187.84
2022-11-08T15:50:23.835Z,100184.97
2022-11-08T15:52:53.490Z,100178.81
2022-11-08T15:55:22.978Z,100187.41
2022-11-08T15:57:51.528Z,100194.63
2022-11-08T16:00:24.043Z,100188.06
2022-11-08T16:02:54.596Z,100195.28
2022-11-08T16:05:25.011Z,100192.59
2022-11-08T16:07:53.239Z,100193.22
2022-11-08T16:10:32.007Z,100200.41
2022-11-08T16:13:00.947Z,100200.41
2022-11-08T16:15:30.747Z,100203.69
2022-11-08T16:17:58.351Z,100197.34
2022-11-08T16:20:28.902Z,100205.34
2022-11-08T16:22:57.048Z,100208.00
2022-11-08T16:25:25.900Z,100203.28
2022-11-08T16:27:54.656Z,100194.84
2022-11-08T16:30:25.171Z,100193.81
2022-11-08T16:32:53.045Z,100189.28
2022-11-08T16:35:20.621Z,100187.84
2022-11-08T16:37:51.064Z,100189.25
2022-11-08T16:40:20.910Z,100186.59
2022-11-08T16:42:50.225Z,100176.13
2022-11-08T16:45:24.296Z,100180.44
2022-11-08T16:48:05.852Z,100172.44
2022-11-08T16:50:33.489Z,100178.38
2022-11-08T16:53:02.402Z,100177.34
2022-11-08T16:55:30.760Z,100176.88
2022-11-08T16:58:02.241Z,100181.00
2022-11-08T17:00:29.845Z,100179.56
2022-11-08T17:02:57.317Z,100176.06
2022-11-08T17:05:26.347Z,100166.81
2022-11-08T17:07:55.605Z,100176.03
2022-11-08T17:10:25.727Z,100176.88
2022-11-08T17:12:53.600Z,100185.88
2022-11-08T17:15:22.263Z,100184.47
2022-11-08T17:17:50.558Z,100184.06
2022-11-08T17:20:19.961Z,100174.19
2022-11-08T17:22:47.929Z,100172.16
2022-11-08T17:25:17.147Z,100179.72
2022-11-08T17:27:46.492Z,100182.59
2022-11-08T17:30:15.620Z,100178.09
2022-11-08T17:32:43.290Z,100185.88
2022-11-08T17:35:12.212Z,100181.75
2022-11-08T17:37:39.965Z,100182.19
2022-11-08T17:40:09.024Z,100183.84
2022-11-08T17:42:38.887Z,100183.88
2022-11-08T17:45:09.882Z,100188.38
2022-11-08T17:47:37.943Z,100181.41
2022-11-08T17:50:06.515Z,100185.88
2022-11-08T17:52:34.189Z,100194.91
2022-11-08T17:55:01.693Z,100200.00
2022-11-08T17:57:29.206Z,100196.13
2022-11-08T17:59:57.068Z,100191.19
2022-11-08T18:02:27.336Z,100199.38
2022-11-08T18:04:57.033Z,100192.81
2022-11-08T18:07:25.555Z,100192.19
2022-11-08T18:09:53.055Z,100192.81
2022-11-08T18:12:20.692Z,100193.63
2022-11-08T18:14:48.582Z,100199.59
2022-11-08T18:17:16.061Z,100194.25
2022-11-08T18:19:45.331Z,100196.28
2022-11-08T18:22:13.041Z,100204.69
2022-11-08T18:24:40.929Z,100192.03
2022-11-08T18:27:09.580Z,100201.03
2022-11-08T18:29:37.180Z,100199.38
2022-11-08T18:32:05.162Z,100194.22
2022-11-08T18:34:32.717Z,100190.75
2022-11-08T18:37:01.545Z,100205.03
2022-11-08T18:39:29.098Z,100207.25
2022-11-08T18:41:56.574Z,100210.34
2022-11-08T18:44:24.225Z,100203.00
2022-11-08T18:46:51.782Z,100193.19
2022-11-08T18:49:19.302Z,100183.75
2022-11-08T18:51:51.854Z,100191.09
2022-11-08T18:54:20.901Z,100186.16
2022-11-08T18:56:48.418Z,100190.59
2022-11-08T18:59:16.046Z,100193.91
2022-11-08T19:01:43.709Z,100183.69
2022-11-08T19:04:11.263Z,100178.75
2022-11-08T19:06:38.869Z,100173.47
2022-11-08T19:09:06.647Z,100179.41
2022-11-08T19:11:36.643Z,100173.47
2022-11-08T19:14:04.543Z,100178.97
2022-11-08T19:16:32.301Z,100194.31
2022-11-08T19:19:00.918Z,100199.88
2022-11-08T19:21:29.378Z,100192.53
2022-11-08T19:23:59.377Z,100199.88
2022-11-08T19:26:28.819Z,100196.00
2022-11-08T19:28:58.562Z,100195.59
2022-11-08T19:31:27.234Z,100205.41
2022-11-08T19:33:57.771Z,100193.47
2022-11-08T19:36:28.186Z,100195.94
2022-11-08T19:38:58.173Z,100191.88
2022-11-08T19:41:27.048Z,100191.69
2022-11-08T19:43:56.112Z,100189.59
2022-11-08T19:46:26.888Z,100181.22
2022-11-08T19:48:54.784Z,100173.19
2022-11-08T19:51:24.629Z,100166.66
2022-11-08T19:53:55.893Z,100171.16
2022-11-08T19:56:37.996Z,100167.66
2022-11-08T19:59:11.554Z,100154.69
2022-11-08T20:01:40.991Z,100167.41
2022-11-08T20:04:10.188Z,100170.84
2022-11-08T20:06:38.036Z,100180.47
2022-11-08T20:09:06.582Z,100180.06
2022-11-08T20:11:40.137Z,100175.13
2022-11-08T20:14:08.020Z,100177.19
2022-11-08T20:16:38.070Z,100180.41
2022-11-08T20:19:08.953Z,100177.88
2022-11-08T20:21:38.786Z,100186.50
2022-11-08T20:24:07.351Z,100198.25
2022-11-08T20:26:37.485Z,100201.31
2022-11-08T20:29:05.877Z,100201.47
2022-11-08T20:31:33.927Z,100204.13
2022-11-08T20:34:05.840Z,100209.63
2022-11-08T20:36:49.572Z,100202.69
2022-11-08T20:39:17.361Z,100190.97
2022-11-08T20:41:45.275Z,100188.25
2022-11-08T20:44:13.112Z,100193.38
2022-11-08T20:46:40.836Z,100192.16
2022-11-08T20:49:09.167Z,100194.56
2022-11-08T20:51:38.596Z,100189.88
2022-11-08T20:54:06.477Z,100199.38
2022-11-08T20:56:34.441Z,100205.50
2022-11-08T20:59:03.072Z,100212.44
2022-11-08T21:01:34.378Z,100208.84
2022-11-08T21:04:02.679Z,100201.84
2022-11-08T21:06:36.075Z,100204.31
2022-11-08T21:11:54.434Z,100217.22
2022-11-08T21:14:23.602Z,100222.03
2022-11-08T21:19:39.480Z,100226.53
2022-11-08T21:22:17.245Z,100220.03
2022-11-08T21:24:48.050Z,100229.91
2022-11-08T21:27:38.234Z,100223.81
2022-11-08T21:30:10.775Z,100224.31
2022-11-08T21:32:41.713Z,100227.38
2022-11-08T21:35:13.333Z,100227.97
2022-11-08T21:37:40.986Z,100227.72
2022-11-08T21:40:11.346Z,100235.91
2022-11-08T21:42:40.325Z,100235.69
2022-11-08T21:45:10.848Z,100228.94
2022-11-08T21:47:38.665Z,100229.97
2022-11-08T21:50:09.354Z,100221.34
2022-11-08T21:52:39.497Z,100213.94
2022-11-08T21:55:13.537Z,100223.81
2022-11-08T21:57:42.338Z,100226.28
2022-11-08T22:00:12.319Z,100232.78
2022-11-08T22:02:41.184Z,100230.69
2022-11-08T22:05:11.670Z,100240.56
2022-11-08T22:07:39.640Z,100233.22
2022-11-08T22:10:13.437Z,100233.28
2022-11-08T22:12:44.613Z,100229.59
2022-11-08T22:15:14.115Z,100228.53
2022-11-08T22:18:00.975Z,100223.16
2022-11-08T22:20:32.144Z,100219.31
2022-11-08T22:23:01.761Z,100216.44
2022-11-08T22:25:32.610Z,100219.00
2022-11-08T22:28:12.012Z,100227.78
2022-11-08T22:30:39.644Z,100221.25
2022-11-08T22:33:08.468Z,100224.72
2022-11-08T22:35:36.188Z,100224.13
2022-11-08T22:38:06.551Z,100222.31
2022-11-08T22:40:35.492Z,100231.66
2022-11-08T22:43:05.788Z,100236.56
2022-11-08T22:45:38.300Z,100230.25
2022-11-08T22:48:06.363Z,100225.13
2022-11-08T22:50:34.301Z,100224.91
2022-11-08T22:53:02.104Z,100216.34
2022-11-08T22:55:29.881Z,100216.16
2022-11-08T22:57:57.594Z,100220.41
2022-11-08T23:00:30.132Z,100226.91
2022-11-08T23:02:57.827Z,100228.63
2022-11-08T23:05:25.349Z,100228.75
2022-11-08T23:07:52.867Z,100234.97
2022-11-08T23:10:20.506Z,100228.81
2022-11-08T23:13:05.605Z,100228.06
2022-11-08T23:15:52.104Z,100231.44
2022-11-08T23:18:19.944Z,100226.97
2022-11-08T23:21:04.772Z,100226.53
2022-11-08T23:23:50.236Z,100211.41
2022-11-08T23:26:38.215Z,100199.75
2022-11-08T23:29:23.672Z,100215.47
2022-11-08T23:31:52.518Z,100214.25
2022-11-08T23:34:19.972Z,100216.28
2022-11-08T23:36:47.428Z,100218.06
2022-11-08T23:39:14.915Z,100199.91
2022-11-08T23:42:06.213Z,100194.19
2022-11-08T23:44:34.234Z,100201.22
2022-11-08T23:47:03.138Z,100200.47
2022-11-08T23:49:30.615Z,100195.34
2022-11-08T23:51:58.179Z,100182.69
2022-11-08T23:54:25.685Z,100185.53
2022-11-08T23:56:53.196Z,100202.00
2022-11-08T23:59:20.784Z,100209.53
